Time;durP1;ratioP1;P1;durP2;ratioP2;P2;SDS_P1;SDS_P2;PMS_P1;PMS_P2;Temp;Humidity;BMP_temperature;BMP_pressure;BME280_temperature;BME280_humidity;BME280_pressure;Samples;Min_cycle;Max_cycle;Signal;HPM_P1;HPM_P2
2022/07/20 00:01:34;;;;;;;25.75;11.63;;;;;;;17.76;100.00;100267.70;1779457;81;21044;-84
2022/07/20 00:04:01;;;;;;;27.48;12.00;;;;;;;17.79;100.00;100263.69;1779122;81;20992;-85
2022/07/20 00:06:27;;;;;;;25.05;11.45;;;;;;;17.81;100.00;100260.20;1778977;81;20981;-85
2022/07/20 00:11:40;;;;;;;23.32;11.15;;;;;;;17.82;100.00;100253.69;1778705;80;21013;-85
2022/07/20 00:14:08;;;;;;;25.02;11.12;;;;;;;17.83;100.00;100248.02;1779122;81;21013;-85
2022/07/20 00:16:35;;;;;;;26.30;11.83;;;;;;;17.85;100.00;100253.27;1778915;81;20996;-84
2022/07/20 00:19:03;;;;;;;32.15;13.70;;;;;;;17.85;100.00;100251.91;1778983;80;21495;-83
2022/07/20 00:21:31;;;;;;;36.35;15.05;;;;;;;17.87;100.00;100257.20;1778933;81;21562;-85
2022/07/20 00:23:57;;;;;;;36.45;16.30;;;;;;;17.87;100.00;100247.09;1773446;81;21065;-83
2022/07/20 00:26:24;;;;;;;33.30;13.58;;;;;;;17.87;100.00;100251.19;1772185;81;21005;-85
2022/07/20 00:28:51;;;;;;;27.40;12.75;;;;;;;17.86;100.00;100259.07;1772641;80;21084;-85
2022/07/20 00:31:19;;;;;;;25.92;10.75;;;;;;;17.84;100.00;100250.22;1772182;81;20989;-85
2022/07/20 00:33:47;;;;;;;25.35;10.20;;;;;;;17.83;100.00;100257.59;1772376;80;21028;-84
2022/07/20 00:36:17;;;;;;;24.02;9.23;;;;;;;17.80;100.00;100253.07;1772514;81;21514;-84
2022/07/20 00:38:44;;;;;;;20.23;9.05;;;;;;;17.78;100.00;100257.38;1772702;80;21035;-85
2022/07/20 00:41:11;;;;;;;22.30;9.03;;;;;;;17.73;100.00;100248.98;1772438;80;21076;-84
2022/07/20 00:44:03;;;;;;;17.80;7.90;;;;;;;17.70;100.00;100241.72;1729751;83;21497;-84
2022/07/20 00:46:32;;;;;;;18.87;7.17;;;;;;;17.66;100.00;100238.58;1729598;83;21023;-85
2022/07/20 00:48:59;;;;;;;18.82;7.28;;;;;;;17.60;100.00;100229.84;1731200;80;21011;-85
2022/07/20 00:51:26;;;;;;;16.62;7.03;;;;;;;17.55;100.00;100225.03;1731877;80;21276;-85
2022/07/20 00:53:53;;;;;;;15.70;6.58;;;;;;;17.52;100.00;100221.34;1731211;82;21030;-84
2022/07/20 00:56:20;;;;;;;17.17;6.37;;;;;;;17.49;100.00;100214.09;1746694;81;20995;-85
2022/07/20 00:58:48;;;;;;;14.60;6.60;;;;;;;17.46;100.00;100211.27;1761192;81;21084;-85
2022/07/20 01:01:14;;;;;;;11.65;6.17;;;;;;;17.42;100.00;100212.22;1760975;81;21500;-85
2022/07/20 01:03:43;;;;;;;13.93;6.30;;;;;;;17.37;100.00;100206.55;1761249;81;21079;-86
2022/07/20 01:06:11;;;;;;;14.93;6.87;;;;;;;17.34;100.00;100208.33;1760981;81;21485;-85
2022/07/20 01:08:40;;;;;;;16.27;6.80;;;;;;;17.30;100.00;100211.69;1761264;81;21469;-86
2022/07/20 01:11:09;;;;;;;18.20;7.20;;;;;;;17.20;100.00;100200.66;1760811;81;21039;-85
2022/07/20 01:13:36;;;;;;;17.35;7.75;;;;;;;17.11;100.00;100200.56;1761155;81;21006;-86
2022/07/20 01:16:04;;;;;;;20.50;8.98;;;;;;;17.05;100.00;100194.56;1760898;81;21058;-85
2022/07/20 01:18:31;;;;;;;20.08;8.33;;;;;;;17.00;100.00;100195.20;1761070;81;21050;-85
2022/07/20 01:21:06;;;;;;;20.65;8.35;;;;;;;16.96;100.00;100195.29;1761151;81;21520;-85
2022/07/20 01:23:33;;;;;;;21.37;8.00;;;;;;;16.91;100.00;100195.60;1687211;84;21040;-85
2022/07/20 01:25:59;;;;;;;22.05;8.03;;;;;;;16.86;100.00;100185.33;1679205;85;21012;-85
2022/07/20 01:28:28;;;;;;;15.75;7.15;;;;;;;16.81;100.00;100189.17;1678955;85;21000;-84
2022/07/20 01:30:56;;;;;;;18.12;7.50;;;;;;;16.75;100.00;100185.39;1678488;85;21056;-85
2022/07/20 01:33:23;;;;;;;19.32;7.47;;;;;;;16.69;100.00;100187.57;1678967;85;21542;-85
2022/07/20 01:35:49;;;;;;;15.15;7.10;;;;;;;16.66;100.00;100184.75;1678726;85;21036;-85
2022/07/20 01:38:17;;;;;;;17.55;7.17;;;;;;;16.63;100.00;100182.95;1678496;85;21047;-85
2022/07/20 01:40:44;;;;;;;20.30;8.60;;;;;;;16.60;100.00;100177.90;1678598;85;21059;-86
2022/07/20 01:43:11;;;;;;;20.17;8.75;;;;;;;16.58;100.00;100176.73;1678673;85;21043;-86
2022/07/20 01:45:38;;;;;;;19.90;8.18;;;;;;;16.55;100.00;100170.86;1678970;85;21553;-86
2022/07/20 01:48:06;;;;;;;19.73;7.78;;;;;;;16.55;100.00;100169.48;1678823;85;21501;-87
2022/07/20 01:50:34;;;;;;;22.35;7.87;;;;;;;16.53;100.00;100165.59;1678781;85;21537;-85
2022/07/20 01:53:01;;;;;;;26.12;7.75;;;;;;;16.50;100.00;100168.23;1678686;85;21008;-86
2022/07/20 01:55:29;;;;;;;27.95;7.97;;;;;;;16.49;100.00;100169.27;1678794;85;21032;-85
2022/07/20 01:57:56;;;;;;;26.35;7.90;;;;;;;16.48;100.00;100169.47;1678816;85;21008;-84
2022/07/20 02:00:23;;;;;;;25.08;7.33;;;;;;;16.45;100.00;100171.23;1678857;85;21589;-83
2022/07/20 02:02:51;;;;;;;24.35;9.68;;;;;;;16.42;100.00;100173.88;1678598;85;21173;-84
2022/07/20 02:05:18;;;;;;;29.87;13.58;;;;;;;16.40;100.00;100169.15;1679076;85;21003;-85
2022/07/20 02:07:45;;;;;;;28.60;12.47;;;;;;;16.39;100.00;100169.34;1678998;85;21553;-85
2022/07/20 02:10:14;;;;;;;25.00;10.20;;;;;;;16.38;100.00;100160.83;1679446;85;21059;-85
2022/07/20 02:12:42;;;;;;;22.60;8.93;;;;;;;16.36;100.00;100167.02;1678955;85;21075;-86
2022/07/20 02:15:10;;;;;;;19.10;8.55;;;;;;;16.33;100.00;100164.20;1679193;85;21101;-86
2022/07/20 02:17:40;;;;;;;21.02;9.15;;;;;;;16.29;100.00;100167.86;1678925;85;21076;-84
2022/07/20 02:20:09;;;;;;;21.50;8.48;;;;;;;16.26;100.00;100164.70;1702643;83;21039;-86
2022/07/20 02:22:36;;;;;;;17.90;7.70;;;;;;;16.21;100.00;100164.47;1698498;81;21527;-86
2022/07/20 02:25:03;;;;;;;18.82;7.17;;;;;;;16.16;100.00;100160.16;1724373;83;21032;-86
2022/07/20 02:27:31;;;;;;;13.15;6.28;;;;;;;16.12;100.00;100152.91;1724098;83;21033;-85
2022/07/20 02:29:58;;;;;;;14.98;6.50;;;;;;;16.09;100.00;100156.86;1724363;83;21020;-83
2022/07/20 02:32:25;;;;;;;17.00;6.20;;;;;;;16.06;100.00;100156.43;1723985;83;21558;-84
2022/07/20 02:34:52;;;;;;;15.65;6.25;;;;;;;16.05;100.00;100149.31;1724073;83;21044;-86
2022/07/20 02:37:21;;;;;;;16.23;6.87;;;;;;;16.03;100.00;100144.06;1724021;83;21096;-86
2022/07/20 02:39:47;;;;;;;17.67;6.20;;;;;;;16.02;100.00;100147.81;1724338;83;21029;-83
2022/07/20 02:42:14;;;;;;;17.25;6.08;;;;;;;16.02;100.00;100143.73;1724211;83;21013;-86
2022/07/20 02:44:41;;;;;;;20.40;7.10;;;;;;;16.01;100.00;100141.23;1724337;83;20996;-87
2022/07/20 02:47:08;;;;;;;13.32;5.50;;;;;;;15.98;100.00;100143.83;1724026;83;21499;-86
2022/07/20 02:49:35;;;;;;;10.13;5.17;;;;;;;15.96;100.00;100143.20;1724151;83;21039;-84
2022/07/20 02:52:03;;;;;;;15.55;5.65;;;;;;;15.95;100.00;100138.77;1724065;83;21530;-85
2022/07/20 02:54:31;;;;;;;12.88;5.67;;;;;;;15.95;100.00;100148.31;1724417;83;21052;-84
2022/07/20 02:56:58;;;;;;;15.95;5.70;;;;;;;15.96;100.00;100147.81;1747873;82;21012;-86
2022/07/20 02:59:25;;;;;;;17.23;6.42;;;;;;;15.98;100.00;100146.55;1753958;82;21030;-86
2022/07/20 03:01:52;;;;;;;11.12;5.37;;;;;;;16.06;100.00;100151.84;1753617;82;21015;-85
2022/07/20 03:04:19;;;;;;;20.62;8.13;;;;;;;16.16;100.00;100146.52;1753528;82;21532;-85
2022/07/20 03:06:46;;;;;;;18.87;7.30;;;;;;;16.27;100.00;100150.86;1753914;82;21041;-86
2022/07/20 03:09:13;;;;;;;19.42;7.55;;;;;;;16.39;100.00;100149.72;1753771;82;21027;-86
2022/07/20 03:11:40;;;;;;;22.55;9.20;;;;;;;16.53;100.00;100152.48;1753979;82;21018;-86
2022/07/20 03:14:07;;;;;;;27.10;9.58;;;;;;;16.66;100.00;100152.48;1753901;81;21497;-84
2022/07/20 03:16:35;;;;;;;21.57;8.48;;;;;;;16.78;100.00;100155.45;1753739;81;21022;-86
2022/07/20 03:19:03;;;;;;;16.73;6.83;;;;;;;16.88;100.00;100160.84;1753786;82;21530;-86
2022/07/20 03:21:30;;;;;;;14.33;5.75;;;;;;;17.00;100.00;100164.33;1753981;81;21038;-85
2022/07/20 03:23:57;;;;;;;13.05;5.50;;;;;;;17.11;100.00;100169.15;1755330;82;21039;-86
2022/07/20 03:26:24;;;;;;;10.78;4.55;;;;;;;17.22;100.00;100176.70;1756469;82;21125;-87
2022/07/20 03:28:51;;;;;;;9.03;4.55;;;;;;;17.34;100.00;100178.27;1756681;82;20979;-85
2022/07/20 03:31:19;;;;;;;10.80;4.75;;;;;;;17.48;100.00;100181.00;1756644;82;21027;-84
2022/07/20 03:33:45;;;;;;;10.98;4.25;;;;;;;17.60;100.00;100183.36;1756912;82;21480;-84
2022/07/20 03:36:14;;;;;;;8.93;4.08;;;;;;;17.74;100.00;100188.27;1756687;81;21102;-85
2022/07/20 03:38:41;;;;;;;8.30;4.55;;;;;;;17.89;100.00;100188.07;1756353;82;21027;-85
2022/07/20 03:41:07;;;;;;;9.55;4.00;;;;;;;18.02;100.00;100187.50;1756708;82;21549;-85
2022/07/20 03:43:34;;;;;;;9.00;3.90;;;;;;;18.15;100.00;100190.70;1756634;82;21006;-85
2022/07/20 03:46:01;;;;;;;13.48;5.17;;;;;;;18.28;100.00;100199.91;1756647;82;20999;-83
2022/07/20 03:48:30;;;;;;;11.57;4.62;;;;;;;18.39;100.00;100195.10;1756868;82;21015;-84
2022/07/20 03:50:57;;;;;;;7.95;3.98;;;;;;;18.49;100.00;100202.86;1756395;82;21066;-85
2022/07/20 03:53:25;;;;;;;7.83;3.83;;;;;;;18.55;100.00;100205.53;1756404;82;21042;-85
2022/07/20 03:55:53;;;;;;;8.95;3.75;;;;;;;18.59;100.00;100204.05;1757175;82;21014;-85
2022/07/20 03:58:20;;;;;;;8.53;3.60;;;;;;;18.62;100.00;100200.02;1700816;83;21062;-83
2022/07/20 04:00:46;;;;;;;6.45;3.72;;;;;;;18.65;100.00;100198.77;1793781;80;21006;-84
2022/07/20 04:03:13;;;;;;;12.40;3.72;;;;;;;18.69;100.00;100195.34;1793581;80;21536;-84
2022/07/20 04:05:40;;;;;;;7.33;3.22;;;;;;;18.73;100.00;100191.62;1793661;80;21006;-83
2022/07/20 04:10:35;;;;;;;9.88;3.40;;;;;;;18.84;100.00;100189.60;1696583;85;21070;-84
2022/07/20 04:13:05;;;;;;;10.58;3.40;;;;;;;18.91;100.00;100182.68;1697377;85;21058;-83
2022/07/20 04:15:33;;;;;;;6.37;3.20;;;;;;;18.97;100.00;100181.80;1697922;85;21101;-82
2022/07/20 04:18:00;;;;;;;8.18;3.22;;;;;;;19.04;100.00;100181.76;1696221;85;20987;-83
2022/07/20 04:20:27;;;;;;;8.85;3.67;;;;;;;19.13;100.00;100181.24;1695786;85;21572;-83
2022/07/20 04:22:55;;;;;;;7.37;3.40;;;;;;;19.25;100.00;100175.05;1695123;85;21097;-83
2022/07/20 04:25:23;;;;;;;6.25;3.25;;;;;;;19.37;100.00;100180.10;1695717;85;21513;-83
2022/07/20 04:27:50;;;;;;;5.55;3.17;;;;;;;19.52;100.00;100181.10;1695826;85;21030;-83
2022/07/20 04:30:17;;;;;;;7.45;3.62;;;;;;;19.68;100.00;100171.44;1695441;85;21107;-83
2022/07/20 04:32:44;;;;;;;5.97;3.37;;;;;;;19.90;100.00;100173.21;1695581;85;21050;-83
2022/07/20 04:35:11;;;;;;;10.45;4.03;;;;;;;20.12;100.00;100170.84;1695443;85;21031;-84
2022/07/20 04:37:38;;;;;;;9.63;3.72;;;;;;;20.33;100.00;100164.02;1695356;85;21054;-82
2022/07/20 04:40:07;;;;;;;5.83;3.08;;;;;;;20.57;100.00;100166.30;1695584;85;21054;-82
2022/07/20 04:42:35;;;;;;;5.10;3.17;;;;;;;20.79;100.00;100168.56;1695503;85;21031;-83
2022/07/20 04:45:03;;;;;;;8.00;3.60;;;;;;;21.01;100.00;100160.04;1695489;85;21078;-83
2022/07/20 04:47:30;;;;;;;5.58;3.22;;;;;;;21.20;100.00;100163.53;1695555;85;21059;-86
2022/07/20 04:49:57;;;;;;;5.50;3.15;;;;;;;21.40;100.00;100165.09;1695383;85;21943;-88
2022/07/20 04:52:23;;;;;;;5.50;3.05;;;;;;;21.60;100.00;100164.22;1686113;85;20999;-74
2022/07/20 04:54:50;;;;;;;7.00;3.17;;;;;;;21.82;100.00;100166.89;1681579;85;21044;-75
2022/07/20 04:57:17;;;;;;;5.85;3.10;;;;;;;22.03;100.00;100177.77;1679858;85;21106;-75
2022/07/20 04:59:44;;;;;;;21.70;13.18;;;;;;;22.23;100.00;100179.56;1682436;85;21075;-75
2022/07/20 05:02:11;;;;;;;23.80;15.25;;;;;;;22.42;100.00;100180.25;1682743;85;21010;-75
2022/07/20 05:04:39;;;;;;;56.77;48.90;;;;;;;22.62;100.00;100182.55;1690647;85;21098;-78
2022/07/20 05:07:05;;;;;;;59.13;50.03;;;;;;;22.82;100.00;100184.00;1726842;80;20970;-76
2022/07/20 05:09:33;;;;;;;93.87;75.22;;;;;;;22.98;100.00;100189.23;1792332;80;21001;-76
2022/07/20 05:12:00;;;;;;;47.65;42.62;;;;;;;23.12;100.00;100196.98;1792447;80;21017;-81
2022/07/20 05:14:27;;;;;;;19.37;10.53;;;;;;;23.23;100.00;100204.88;1793838;79;21468;-76
2022/07/20 05:16:55;;;;;;;6.83;4.40;;;;;;;23.36;100.00;100210.59;1797069;79;20992;-79
2022/07/20 05:19:22;;;;;;;6.75;3.67;;;;;;;23.51;100.00;100208.59;1792323;79;20997;-76
2022/07/20 05:21:49;;;;;;;4.40;3.40;;;;;;;23.62;100.00;100210.45;1779464;81;21049;-77
2022/07/20 05:24:16;;;;;;;7.05;4.00;;;;;;;23.67;100.00;100217.42;1788980;80;20994;-79
2022/07/20 05:26:43;;;;;;;9.15;3.33;;;;;;;23.73;100.00;100218.33;1793783;80;20990;-76
2022/07/20 05:29:10;;;;;;;7.37;3.02;;;;;;;23.83;100.00;100219.89;1793850;80;21460;-73
2022/07/20 05:31:38;;;;;;;9.63;5.92;;;;;;;23.95;100.00;100214.23;1791418;80;21050;-73
2022/07/20 05:34:05;;;;;;;5.75;4.10;;;;;;;24.12;100.00;100220.27;1792727;80;21026;-73
2022/07/20 05:36:31;;;;;;;18.55;10.38;;;;;;;24.32;100.00;100218.30;1793369;80;21017;-73
2022/07/20 05:39:00;;;;;;;247.02;221.20;;;;;;;24.51;100.00;100221.01;1792213;80;21539;-74
2022/07/20 05:41:27;;;;;;;46.50;41.53;;;;;;;24.69;100.00;100223.99;1792546;80;21010;-73
2022/07/20 05:43:53;;;;;;;120.65;105.40;;;;;;;24.90;100.00;100220.06;1791961;80;21531;-72
2022/07/20 05:46:21;;;;;;;112.75;100.97;;;;;;;25.11;100.00;100220.53;1792739;80;21315;-73
2022/07/20 05:48:48;;;;;;;35.45;31.70;;;;;;;25.31;100.00;100216.30;1792758;80;21034;-74
2022/07/20 05:51:15;;;;;;;35.08;24.67;;;;;;;25.53;100.00;100209.25;1792747;80;21500;-74
2022/07/20 05:53:41;;;;;;;21.93;10.80;;;;;;;25.75;100.00;100210.52;1792839;80;21002;-72
2022/07/20 05:56:08;;;;;;;8.50;4.55;;;;;;;25.96;100.00;100208.72;1792759;79;20948;-73
2022/07/20 05:58:35;;;;;;;17.62;9.18;;;;;;;26.09;100.00;100211.55;1792203;80;21534;-73
2022/07/20 06:01:02;;;;;;;12.58;7.03;;;;;;;26.16;100.00;100209.92;1792614;80;21008;-75
2022/07/20 06:03:29;;;;;;;7.22;4.15;;;;;;;26.25;100.00;100211.06;1791576;80;21047;-76
2022/07/20 06:05:56;;;;;;;9.33;3.77;;;;;;;26.37;100.00;100204.73;1791999;80;21056;-74
2022/07/20 06:08:24;;;;;;;18.55;6.85;;;;;;;26.51;100.00;100207.83;1791587;80;21047;-75
2022/07/20 06:10:51;;;;;;;5.22;3.52;;;;;;;26.63;100.00;100211.22;1792519;80;21542;-73
2022/07/20 06:13:17;;;;;;;14.83;3.75;;;;;;;26.75;100.00;100205.95;1792331;80;21032;-75
2022/07/20 06:15:46;;;;;;;11.95;4.58;;;;;;;26.85;100.00;100206.80;1792425;80;21054;-73
2022/07/20 06:18:13;;;;;;;35.38;6.00;;;;;;;27.02;100.00;100203.78;1792612;80;20972;-74
2022/07/20 06:20:41;;;;;;;35.50;5.62;;;;;;;27.19;100.00;100202.09;1794174;79;20972;-74
2022/07/20 06:23:08;;;;;;;12.80;3.87;;;;;;;27.34;100.00;100197.67;1793946;80;21082;-74
2022/07/20 06:25:35;;;;;;;7.70;3.35;;;;;;;27.48;100.00;100198.77;1793901;79;21045;-74
2022/07/20 06:28:02;;;;;;;11.28;4.05;;;;;;;27.63;100.00;100199.31;1793337;80;21043;-74
2022/07/20 06:30:29;;;;;;;15.15;3.80;;;;;;;27.76;100.00;100190.38;1793031;80;21012;-73
2022/07/20 06:32:56;;;;;;;31.85;5.08;;;;;;;27.77;100.00;100196.78;1794120;80;21050;-74
2022/07/20 06:35:23;;;;;;;6.92;4.00;;;;;;;27.78;100.00;100202.06;1794223;80;21510;-74
2022/07/20 06:37:50;;;;;;;8.53;4.22;;;;;;;27.76;100.00;100198.70;1794514;80;21003;-75
2022/07/20 06:40:17;;;;;;;12.00;3.80;;;;;;;27.67;100.00;100190.69;1793478;80;21031;-74
2022/07/20 06:42:44;;;;;;;12.20;4.20;;;;;;;27.55;100.00;100191.01;1793886;80;21046;-74
2022/07/20 06:45:12;;;;;;;5.90;3.90;;;;;;;27.61;100.00;100184.31;1793725;80;21031;-74
2022/07/20 06:47:39;;;;;;;13.00;6.97;;;;;;;27.69;100.00;100182.89;1793809;80;21019;-75
2022/07/20 06:50:07;;;;;;;7.10;4.50;;;;;;;27.75;100.00;100180.96;1793209;80;21050;-74
2022/07/20 06:52:34;;;;;;;13.03;4.60;;;;;;;27.89;100.00;100172.30;1793275;80;21093;-73
2022/07/20 06:55:02;;;;;;;18.15;10.72;;;;;;;28.11;100.00;100176.69;1793509;80;21481;-73
2022/07/20 06:57:29;;;;;;;14.50;8.20;;;;;;;28.38;100.00;100172.09;1792533;80;21015;-72
2022/07/20 06:59:56;;;;;;;17.30;6.00;;;;;;;28.65;100.00;100163.88;1793290;80;21062;-73
2022/07/20 07:02:23;;;;;;;10.08;4.97;;;;;;;28.82;100.00;100165.70;1793496;80;21506;-74
2022/07/20 07:04:50;;;;;;;10.43;5.35;;;;;;;28.88;100.00;100169.28;1793179;80;21031;-73
2022/07/20 07:07:18;;;;;;;13.08;4.90;;;;;;;28.74;100.00;100172.73;1792916;80;21035;-73
2022/07/20 07:09:45;;;;;;;8.10;4.20;;;;;;;28.68;100.00;100164.14;1792875;80;21035;-72
2022/07/20 07:12:12;;;;;;;11.05;4.50;;;;;;;28.79;100.00;100166.28;1792704;80;21499;-71
2022/07/20 07:14:40;;;;;;;10.70;5.40;;;;;;;28.92;100.00;100162.03;1792335;80;21090;-72
2022/07/20 07:17:11;;;;;;;17.80;5.50;;;;;;;29.10;100.00;100164.09;1793040;80;21019;-71
2022/07/20 07:19:41;;;;;;;18.07;9.90;;;;;;;29.12;100.00;100159.63;1663438;86;21086;-70
2022/07/20 07:22:09;;;;;;;10.53;5.60;;;;;;;28.97;100.00;100168.38;1664369;86;20998;-70
2022/07/20 07:24:35;;;;;;;12.88;7.05;;;;;;;29.04;100.00;100164.42;1659298;86;21055;-73
2022/07/20 07:27:03;;;;;;;14.55;6.40;;;;;;;29.19;100.00;100160.14;1651424;87;21019;-72
2022/07/20 07:29:30;;;;;;;11.12;5.80;;;;;;;29.44;100.00;100154.06;1653366;87;21070;-71
2022/07/20 07:32:00;;;;;;;15.35;7.15;;;;;;;29.61;100.00;100151.65;1650847;87;21035;-72
2022/07/20 07:34:29;;;;;;;17.10;7.45;;;;;;;29.48;100.00;100155.98;1649958;87;21103;-70
2022/07/20 07:36:56;;;;;;;20.72;11.53;;;;;;;29.07;100.00;100163.84;1650350;87;21633;-70
2022/07/20 07:39:24;;;;;;;13.10;6.25;;;;;;;28.47;100.00;100159.80;1650418;87;21039;-71
2022/07/20 07:41:51;;;;;;;106.63;15.55;;;;;;;27.92;100.00;100154.25;1650021;87;21075;-71
2022/07/20 07:44:18;;;;;;;21.87;6.05;;;;;;;27.46;100.00;100157.42;1650577;87;21062;-72
2022/07/20 07:46:45;;;;;;;11.60;4.80;;;;;;;26.96;100.00;100151.33;1650590;87;21138;-74
2022/07/20 07:49:12;;;;;;;20.10;6.30;;;;;;;26.67;100.00;100152.70;1650487;87;21533;-73
2022/07/20 07:51:39;;;;;;;14.07;4.97;;;;;;;26.83;100.00;100143.02;1649557;87;21200;-73
2022/07/20 07:54:06;;;;;;;15.43;4.65;;;;;;;27.15;100.00;100130.23;1649712;87;21106;-73
2022/07/20 07:56:34;;;;;;;11.38;4.30;;;;;;;27.46;100.00;100132.43;1649464;87;21501;-72
2022/07/20 07:59:01;;;;;;;8.03;4.20;;;;;;;27.85;100.00;100135.06;1648530;87;21696;-73
2022/07/20 08:01:28;;;;;;;7.12;4.00;;;;;;;28.35;100.00;100133.19;1647514;87;21696;-73
2022/07/20 08:03:55;;;;;;;23.83;19.32;;;;;;;28.89;100.00;100133.39;1648384;87;21572;-72
2022/07/20 08:06:22;;;;;;;8.98;5.42;;;;;;;29.17;100.00;100135.13;1648706;87;21071;-74
2022/07/20 08:08:49;;;;;;;68.05;60.60;;;;;;;29.05;100.00;100134.08;1619791;87;21022;-72
2022/07/20 08:11:17;;;;;;;17.75;12.37;;;;;;;28.73;100.00;100139.06;1608066;89;21093;-72
2022/07/20 08:13:43;;;;;;;9.38;4.62;;;;;;;28.64;100.00;100125.51;1608465;89;21049;-74
2022/07/20 08:16:10;;;;;;;10.08;4.50;;;;;;;28.70;100.00;100124.91;1635657;85;21015;-72
2022/07/20 08:18:39;;;;;;;5.10;3.30;;;;;;;28.59;100.00;100124.97;1686701;85;21051;-71
2022/07/20 08:21:06;;;;;;;6.12;3.50;;;;;;;28.63;100.00;100109.92;1686320;85;21074;-73
2022/07/20 08:23:34;;;;;;;15.63;4.03;;;;;;;28.69;100.00;100108.78;1738950;82;21065;-72
2022/07/20 08:26:01;;;;;;;10.58;4.53;;;;;;;28.50;100.00;100103.61;1776819;80;21000;-71
2022/07/20 08:28:29;;;;;;;7.55;4.10;;;;;;;28.09;100.00;100099.14;1780245;80;21077;-72
2022/07/20 08:30:55;;;;;;;14.20;4.20;;;;;;;27.76;100.00;100100.66;1780682;80;21330;-73
2022/07/20 08:33:22;;;;;;;15.08;4.83;;;;;;;27.54;100.00;100088.53;1780920;80;21024;-74
2022/07/20 08:35:50;;;;;;;10.50;4.80;;;;;;;27.60;100.00;100084.05;1781160;80;21068;-72
2022/07/20 08:38:17;;;;;;;6.87;3.58;;;;;;;27.98;100.00;100080.87;1780956;80;21540;-74
2022/07/20 08:40:44;;;;;;;9.80;3.52;;;;;;;28.50;100.00;100079.41;1781055;80;20983;-74
2022/07/20 08:43:10;;;;;;;14.18;4.60;;;;;;;28.97;100.00;100079.32;1781216;80;20980;-72
2022/07/20 08:45:37;;;;;;;19.12;5.60;;;;;;;29.19;100.00;100073.02;1781251;80;20980;-74
2022/07/20 08:48:10;;;;;;;14.33;5.45;;;;;;;29.33;100.00;100078.16;1780764;80;21036;-72
2022/07/20 08:50:37;;;;;;;14.07;4.12;;;;;;;29.49;100.00;100072.66;1780376;80;21111;-74
2022/07/20 08:53:04;;;;;;;5.72;3.85;;;;;;;29.72;100.00;100070.16;1780444;80;21142;-73
2022/07/20 08:55:31;;;;;;;28.17;5.55;;;;;;;30.06;100.00;100066.39;1781867;79;21039;-73
2022/07/20 08:57:58;;;;;;;11.40;4.33;;;;;;;30.38;100.00;100061.46;1784832;80;21076;-71
2022/07/20 09:00:25;;;;;;;22.40;4.72;;;;;;;30.67;100.00;100053.48;1785416;80;21012;-72
2022/07/20 09:03:02;;;;;;;11.28;3.55;;;;;;;30.96;100.00;100051.05;1785792;80;21028;-74
2022/07/20 09:05:35;;;;;;;20.85;4.47;;;;;;;31.17;100.00;100042.53;1785361;80;21498;-70
2022/07/20 09:08:02;;;;;;;9.55;3.62;;;;;;;31.27;100.00;100046.26;1785875;80;20999;-73
2022/07/20 09:10:33;;;;;;;9.73;3.95;;;;;;;31.40;100.00;100038.47;1783561;80;21094;-73
2022/07/20 09:13:13;;;;;;;24.67;4.37;;;;;;;31.53;100.00;100027.86;1782988;80;21060;-73
2022/07/20 09:15:44;;;;;;;14.23;3.77;;;;;;;31.59;98.91;100032.22;1782848;80;21522;-73
2022/07/20 09:18:34;;;;;;;10.43;3.50;;;;;;;31.37;95.52;100024.53;1782681;80;21056;-73
2022/07/20 09:21:05;;;;;;;9.38;3.70;;;;;;;31.02;98.10;100019.09;1781883;80;21075;-76
2022/07/20 09:23:47;;;;;;;9.25;2.90;;;;;;;30.77;100.00;100016.18;1727307;82;21121;-74
2022/07/20 09:26:15;;;;;;;16.15;4.00;;;;;;;30.88;100.00;100012.09;1724662;82;21075;-74
2022/07/20 09:28:48;;;;;;;5.22;3.05;;;;;;;31.01;100.00;100005.70;1722311;82;21067;-76
2022/07/20 09:31:21;;;;;;;12.58;5.67;;;;;;;31.29;100.00;100001.53;1664291;86;21618;-74
2022/07/20 09:33:54;;;;;;;31.70;9.48;;;;;;;31.56;96.59;100003.50;1664435;84;21546;-74
2022/07/20 09:36:23;;;;;;;10.82;4.65;;;;;;;31.70;93.04;99996.49;1664288;86;21088;-75
2022/07/20 09:38:50;;;;;;;10.50;3.67;;;;;;;31.79;93.07;99993.20;1664465;86;21598;-76
2022/07/20 09:41:28;;;;;;;12.82;4.10;;;;;;;31.97;91.40;99989.17;1664257;86;21049;-75
2022/07/20 09:43:59;;;;;;;7.15;3.37;;;;;;;32.13;92.47;99986.28;1663576;86;21059;-77
2022/07/20 09:46:29;;;;;;;45.73;34.50;;;;;;;32.31;92.00;99989.21;1664000;86;21064;-75
2022/07/20 09:48:58;;;;;;;13.38;7.90;;;;;;;32.47;87.13;99976.48;1664024;86;21585;-74
2022/07/20 09:51:31;;;;;;;15.25;4.62;;;;;;;32.54;85.92;99982.44;1664146;86;21302;-74
2022/07/20 09:54:03;;;;;;;4.90;3.05;;;;;;;32.60;84.15;99977.59;1664274;86;21111;-74
2022/07/20 09:56:33;;;;;;;7.47;3.65;;;;;;;32.65;81.47;99969.62;1661732;86;21044;-75
2022/07/20 09:59:05;;;;;;;27.95;5.47;;;;;;;32.57;82.35;99973.18;1664212;86;21040;-75
2022/07/20 10:01:38;;;;;;;14.28;4.42;;;;;;;32.28;83.32;99973.91;1664177;86;21105;-74
2022/07/20 10:04:08;;;;;;;17.25;4.78;;;;;;;32.13;84.90;99971.48;1663574;86;21115;-78
2022/07/20 10:06:37;;;;;;;20.32;4.05;;;;;;;32.07;84.84;99960.18;1662797;86;21012;-73
2022/07/20 10:09:05;;;;;;;8.08;3.77;;;;;;;32.08;84.86;99959.02;1663035;85;21132;-72
2022/07/20 10:11:32;;;;;;;9.75;3.47;;;;;;;32.13;86.92;99954.70;1663216;86;21032;-72
2022/07/20 10:14:04;;;;;;;9.35;3.83;;;;;;;32.06;83.51;99947.33;1676108;85;21156;-73
2022/07/20 10:16:38;;;;;;;;;;;;;;;31.75;86.00;99947.47;1689479;85;21091;-71
2022/07/20 10:19:06;;;;;;;12.73;4.15;;;;;;;31.60;85.35;99938.03;1686680;85;20163;-72
2022/07/20 10:21:43;;;;;;;7.67;4.03;;;;;;;31.65;88.48;99945.48;1687133;85;21615;-70
2022/07/20 10:24:30;;;;;;;6.20;4.37;;;;;;;31.89;89.98;99945.18;1662705;86;21153;-73
2022/07/20 10:27:08;;;;;;;8.80;5.58;;;;;;;32.18;88.31;99929.98;1664255;85;21531;-72
2022/07/20 10:29:40;;;;;;;7.65;4.47;;;;;;;32.31;86.83;99922.08;1696850;85;21094;-73
2022/07/20 10:32:23;;;;;;;10.58;3.60;;;;;;;32.39;87.80;99909.27;1696255;85;21054;-71
2022/07/20 10:34:54;;;;;;;6.87;3.20;;;;;;;32.57;87.66;99907.41;1696194;85;21122;-72
2022/07/20 10:37:36;;;;;;;13.78;4.45;;;;;;;32.73;84.46;99905.28;1695414;85;21038;-72
2022/07/20 10:40:19;;;;;;;5.97;3.60;;;;;;;32.69;80.65;99900.67;1695747;85;21007;-76
2022/07/20 10:43:14;;;;;;;6.00;3.30;;;;;;;32.69;81.12;99900.67;1695783;85;21096;-74
2022/07/20 10:45:42;;;;;;;8.68;3.98;;;;;;;32.79;83.00;99891.14;1591164;89;21120;-76
2022/07/20 10:48:14;;;;;;;8.80;4.08;;;;;;;32.86;85.10;99895.70;1579077;89;21104;-77
2022/07/20 10:50:45;;;;;;;9.28;3.85;;;;;;;32.88;84.07;99887.23;1609093;89;21069;-74
2022/07/20 10:53:17;;;;;;;4.95;3.50;;;;;;;33.02;87.42;99880.09;1608936;89;21109;-74
2022/07/20 10:55:55;;;;;;;29.20;22.05;;;;;;;33.19;84.14;99881.33;1617312;87;21064;-74
2022/07/20 10:58:32;;;;;;;12.15;5.60;;;;;;;33.04;76.67;99865.20;1588846;89;21030;-74
2022/07/20 11:01:06;;;;;;;10.95;4.30;;;;;;;32.55;79.50;99870.77;1559399;92;21050;-75
2022/07/20 11:03:43;;;;;;;7.20;3.60;;;;;;;32.12;81.86;99886.77;1581931;91;21149;-75
2022/07/20 11:06:21;;;;;;;26.77;4.60;;;;;;;31.75;86.13;99877.59;1583293;91;21111;-74
2022/07/20 11:08:58;;;;;;;13.80;3.45;;;;;;;31.69;92.01;99884.43;1551572;93;21098;-74
2022/07/20 11:11:30;;;;;;;5.80;3.15;;;;;;;31.74;91.06;99879.30;1550289;91;21040;-70
2022/07/20 11:14:05;;;;;;;5.95;3.42;;;;;;;31.57;89.16;99872.98;1548593;91;21107;-72
2022/07/20 11:16:37;;;;;;;22.13;4.75;;;;;;;31.40;91.55;99863.87;1548981;91;21602;-73
2022/07/20 11:19:07;;;;;;;9.55;4.20;;;;;;;31.50;93.17;99858.63;1530084;93;21087;-75
2022/07/20 11:21:43;;;;;;;7.10;3.50;;;;;;;31.73;92.18;99856.13;1596070;88;21094;-70
2022/07/20 11:24:28;;;;;;;8.43;3.40;;;;;;;31.99;87.32;99843.70;1672032;86;21077;-73
2022/07/20 11:26:56;;;;;;;8.98;3.90;;;;;;;32.20;89.07;99840.41;1667747;86;21133;-73